createdAt,value
2017-10-06T00:00:36.419Z,88.93
2017-10-06T00:01:36.476Z,89.03
2017-10-06T00:03:29.483Z,89.13
2017-10-06T00:04:29.525Z,89.03
2017-10-06T00:06:22.526Z,88.65
2017-10-06T00:07:22.566Z,88.56
2017-10-06T00:09:15.555Z,88.75
2017-10-06T00:10:15.616Z,88.75
2017-10-06T00:12:08.621Z,88.93
2017-10-06T00:13:08.658Z,88.93
2017-10-06T00:15:01.646Z,88.03
2017-10-06T00:16:01.702Z,88.18
2017-10-06T00:17:54.706Z,88.93
2017-10-06T00:18:54.749Z,88.65
2017-10-06T00:20:47.733Z,88.08
2017-10-06T00:21:47.792Z,88.41
2017-10-06T00:23:40.792Z,88.27
2017-10-06T00:24:40.833Z,88.22
2017-10-06T00:26:34.347Z,88.46
2017-10-06T00:27:34.383Z,88.22
2017-10-06T00:29:27.371Z,88.41
2017-10-06T00:30:27.436Z,88.46
2017-10-06T15:36:57.676Z,79.44
2017-10-06T15:37:57.695Z,79.73
2017-10-06T15:39:50.705Z,79.73
2017-10-06T15:40:50.737Z,79.93
2017-10-06T15:42:43.741Z,79.93
2017-10-06T15:43:43.784Z,79.83
2017-10-06T15:45:36.811Z,80.02
2017-10-06T15:46:36.833Z,79.54
2017-10-06T15:48:29.824Z,80.50
2017-10-06T15:49:29.887Z,80.40
2017-10-06T15:51:22.896Z,79.83
2017-10-06T15:52:22.937Z,79.83
2017-10-06T15:54:16.427Z,80.40
2017-10-06T15:55:16.490Z,80.93
2017-10-06T15:57:09.495Z,81.22
2017-10-06T15:58:09.539Z,82.28
2017-10-06T16:00:02.525Z,82.46
2017-10-06T16:01:02.592Z,82.94
2017-10-06T16:02:55.600Z,83.33
2017-10-06T16:03:55.634Z,83.51
2017-10-06T16:05:48.640Z,83.95
2017-10-06T16:06:48.705Z,83.67
2017-10-06T16:08:41.667Z,83.86
2017-10-06T16:09:42.013Z,84.05
2017-10-06T16:11:34.744Z,84.52
2017-10-06T16:12:34.788Z,83.95
2017-10-06T16:14:27.785Z,83.67
2017-10-06T16:15:27.845Z,84.14
2017-10-06T16:17:20.856Z,84.91
2017-10-06T16:18:20.898Z,85.00
2017-10-06T16:20:13.888Z,84.62
2017-10-06T16:21:13.951Z,84.58
2017-10-06T16:23:06.967Z,85.15
2017-10-06T16:24:07.001Z,85.05
2017-10-06T16:26:00.011Z,85.25
2017-10-06T16:27:00.050Z,84.48
2017-10-06T16:28:53.038Z,84.48
2017-10-06T16:29:53.099Z,84.62
2017-10-06T16:31:46.114Z,84.67
2017-10-06T16:32:46.149Z,85.05
2017-10-06T16:34:39.139Z,84.43
2017-10-06T16:35:39.201Z,84.91
2017-10-06T16:37:32.204Z,84.72
2017-10-06T16:38:32.270Z,84.52
2017-10-06T16:40:25.235Z,84.14
2017-10-06T16:41:25.297Z,83.86
2017-10-06T16:43:18.303Z,83.47
2017-10-06T16:44:18.343Z,83.67
2017-10-06T16:46:11.348Z,84.14
2017-10-06T16:47:11.389Z,83.86
2017-10-06T16:49:04.373Z,83.67
2017-10-06T16:50:04.435Z,84.43
2017-10-06T16:51:57.441Z,84.81
2017-10-06T16:52:57.482Z,85.10
2017-10-06T16:54:50.474Z,85.86
2017-10-06T16:55:50.538Z,86.68
2017-10-06T16:57:43.550Z,85.72
2017-10-06T16:58:43.591Z,85.53
2017-10-06T17:00:36.579Z,86.10
2017-10-06T17:01:36.645Z,86.01
2017-10-06T17:03:29.658Z,85.91
2017-10-06T17:04:29.686Z,85.91
2017-10-06T17:06:22.696Z,86.01
2017-10-06T17:07:22.732Z,86.49
2017-10-06T17:09:15.726Z,86.96
2017-10-06T17:10:15.787Z,86.87
2017-10-06T17:12:08.803Z,86.77
2017-10-06T17:13:08.836Z,86.77
2017-10-06T17:15:02.102Z,87.02
2017-10-06T17:16:01.898Z,87.68
2017-10-06T17:17:55.060Z,87.21
2017-10-06T17:18:55.078Z,87.11
2017-10-06T17:20:48.003Z,87.49
2017-10-06T17:21:48.092Z,87.78
2017-10-06T17:23:41.089Z,87.59
2017-10-06T17:24:41.129Z,87.68
2017-10-06T17:26:34.158Z,87.59
2017-10-06T17:27:34.175Z,87.59
2017-10-06T17:29:27.164Z,87.78
2017-10-06T17:30:27.222Z,87.78
2017-10-06T17:32:20.228Z,87.68
2017-10-06T17:34:59.849Z,87.68
2017-10-06T17:35:59.855Z,87.87
2017-10-06T17:37:52.859Z,87.78
2017-10-06T17:38:52.901Z,87.49
2017-10-06T17:40:45.890Z,87.87
2017-10-06T17:41:45.948Z,87.78
2017-10-06T17:43:38.957Z,87.49
2017-10-06T17:44:39.001Z,88.35
2017-10-06T17:46:32.005Z,87.68
2017-10-06T17:47:32.045Z,87.78
2017-10-06T17:49:25.037Z,88.16
2017-10-06T17:50:25.098Z,87.68
2017-10-06T17:52:18.111Z,87.59
2017-10-06T17:53:18.193Z,87.87
2017-10-06T17:55:11.269Z,87.78
2017-10-06T17:56:11.204Z,87.78
2017-10-06T17:58:04.300Z,87.78
2017-10-06T17:59:04.262Z,87.59
2017-10-06T18:00:57.240Z,87.78
2017-10-06T18:01:57.435Z,87.97
2017-10-06T18:03:50.311Z,87.68
2017-10-06T18:04:50.350Z,87.78
2017-10-06T18:06:43.355Z,87.78
2017-10-06T18:07:43.405Z,87.30
2017-10-06T18:09:36.523Z,87.59
2017-10-06T18:10:36.441Z,87.97
2017-10-06T18:12:29.447Z,87.40
2017-10-06T18:13:29.487Z,87.59
2017-10-06T18:15:22.477Z,87.30
2017-10-06T18:16:22.535Z,87.11
2017-10-06T18:18:15.542Z,87.30
2017-10-06T18:19:15.584Z,87.44
2017-10-06T18:21:08.576Z,87.11
2017-10-06T18:22:08.634Z,87.11
2017-10-06T18:24:01.645Z,87.30
2017-10-06T18:25:01.685Z,87.78
2017-10-06T18:26:54.690Z,87.49
2017-10-06T18:27:54.730Z,87.78
2017-10-06T18:29:47.718Z,87.87
2017-10-06T18:30:47.785Z,87.87
2017-10-06T18:32:40.785Z,87.49
2017-10-06T18:33:40.825Z,88.07
2017-10-06T18:35:33.813Z,87.49
2017-10-06T18:36:33.870Z,87.30
2017-10-06T18:38:26.903Z,87.49
2017-10-06T18:39:26.914Z,87.78
2017-10-06T18:41:19.926Z,87.78
2017-10-06T18:42:19.961Z,87.97
2017-10-06T18:44:13.329Z,87.59
2017-10-06T18:45:13.011Z,87.68
2017-10-06T18:47:06.091Z,88.16
2017-10-06T18:48:06.055Z,87.87
2017-10-06T18:49:59.047Z,87.78
2017-10-06T18:50:59.111Z,87.59
2017-10-06T18:52:52.118Z,87.68
2017-10-06T18:53:52.157Z,87.97
2017-10-06T18:55:45.142Z,88.26
2017-10-06T18:56:45.204Z,87.97
2017-10-06T18:58:38.222Z,88.16
2017-10-06T18:59:38.260Z,87.49
2017-10-06T19:01:31.235Z,87.68
2017-10-06T19:02:31.295Z,87.59
2017-10-06T19:04:24.324Z,88.07
2017-10-06T19:05:24.366Z,88.07
2017-10-06T19:07:17.373Z,88.45
2017-10-06T19:08:17.414Z,88.26
2017-10-06T19:10:10.403Z,88.26
2017-10-06T19:11:10.466Z,88.54
2017-10-06T19:13:03.471Z,88.26
2017-10-06T19:14:03.512Z,88.54
2017-10-06T19:15:56.498Z,88.35
2017-10-06T19:16:56.569Z,88.73
2017-10-06T19:18:49.565Z,88.26
2017-10-06T19:19:49.603Z,88.07
2017-10-06T19:21:42.591Z,87.68
2017-10-06T19:22:42.651Z,87.78
2017-10-06T19:24:35.655Z,87.63
2017-10-06T19:25:35.696Z,87.59
2017-10-06T19:27:28.729Z,87.49
2017-10-06T19:28:28.751Z,88.16
2017-10-06T19:30:21.745Z,87.87
2017-10-06T19:31:21.807Z,87.87
2017-10-06T19:33:14.841Z,88.45
2017-10-06T19:34:14.880Z,88.07
2017-10-06T19:36:07.891Z,87.59
2017-10-06T19:37:07.929Z,87.59
2017-10-06T19:39:00.937Z,88.26
2017-10-06T19:40:00.975Z,88.16
2017-10-06T19:41:53.963Z,88.16
2017-10-06T19:42:54.019Z,88.16
2017-10-06T19:44:47.030Z,88.07
2017-10-06T19:45:47.068Z,88.16
2017-10-06T19:47:40.079Z,88.16
2017-10-06T19:48:40.117Z,88.16
2017-10-06T19:50:33.105Z,88.45
2017-10-06T19:51:33.174Z,88.54
2017-10-06T19:53:27.036Z,88.45
2017-10-06T19:54:27.065Z,88.45
2017-10-06T19:56:20.586Z,88.35
2017-10-06T19:57:20.640Z,88.35
2017-10-06T19:59:13.639Z,88.64
2017-10-06T20:00:13.681Z,88.35
2017-10-06T20:02:06.676Z,88.54
2017-10-06T20:03:06.740Z,88.45
2017-10-06T20:04:59.764Z,88.45
2017-10-06T20:05:59.793Z,88.35
2017-10-06T20:07:52.803Z,88.54
2017-10-06T20:08:52.870Z,88.64
2017-10-06T20:10:45.830Z,88.54
2017-10-06T20:11:45.890Z,88.45
2017-10-06T20:13:38.900Z,88.26
2017-10-06T20:14:38.940Z,88.16
2017-10-06T20:16:31.928Z,88.92
2017-10-06T20:17:31.986Z,89.12
2017-10-06T20:19:24.995Z,89.12
2017-10-06T20:20:25.031Z,88.83
2017-10-06T20:22:18.027Z,88.92
2017-10-06T20:23:18.079Z,88.64
2017-10-06T20:25:11.088Z,88.54
2017-10-06T20:26:11.204Z,88.64
2017-10-06T20:28:04.170Z,89.50
2017-10-06T20:29:04.212Z,89.50
2017-10-06T20:30:57.205Z,89.12
2017-10-06T20:31:57.259Z,89.02
2017-10-06T20:33:50.266Z,89.02
2017-10-06T20:34:50.305Z,89.12
2017-10-06T20:36:43.290Z,88.83
2017-10-06T20:37:43.372Z,89.02
2017-10-06T20:39:36.381Z,89.12
2017-10-06T20:40:36.414Z,89.02
2017-10-06T20:42:29.392Z,88.73
2017-10-06T20:43:29.455Z,88.73
2017-10-06T20:45:22.455Z,88.26
2017-10-06T20:46:22.495Z,88.83
2017-10-06T20:48:15.502Z,88.92
2017-10-06T20:49:15.542Z,88.54
2017-10-06T20:51:08.556Z,88.73
2017-10-06T20:52:08.590Z,88.26
2017-10-06T20:54:01.594Z,88.45
2017-10-06T20:55:01.633Z,88.54
2017-10-06T20:56:55.130Z,89.02
2017-10-06T20:57:55.187Z,88.83
2017-10-06T20:59:48.193Z,88.26
2017-10-06T21:00:48.232Z,88.92
2017-10-06T21:02:41.237Z,88.73
2017-10-06T21:03:41.278Z,88.92
2017-10-06T21:05:34.306Z,89.02
2017-10-06T21:06:34.325Z,88.83
2017-10-06T21:08:27.331Z,89.12
2017-10-06T21:09:27.369Z,88.73
2017-10-06T21:11:20.356Z,88.69
2017-10-06T21:12:20.414Z,89.45
2017-10-06T21:14:13.424Z,89.26
2017-10-06T21:15:13.462Z,89.59
2017-10-06T21:17:06.450Z,89.12
2017-10-06T21:18:06.529Z,89.12
2017-10-06T21:19:59.514Z,89.02
2017-10-06T21:20:59.554Z,89.02
2017-10-06T21:22:52.559Z,88.45
2017-10-06T21:23:52.600Z,88.64
2017-10-06T21:25:45.604Z,88.35
2017-10-06T21:26:45.646Z,88.73
2017-10-06T21:28:38.698Z,88.26
2017-10-06T21:29:38.689Z,88.54
2017-10-06T21:31:31.678Z,88.54
2017-10-06T21:32:31.738Z,88.26
2017-10-06T21:34:24.759Z,88.26
2017-10-06T21:35:24.794Z,88.64
2017-10-06T21:37:17.773Z,88.07
2017-10-06T21:38:17.832Z,88.45
2017-10-06T21:40:10.835Z,88.45
2017-10-06T21:41:10.879Z,88.54
2017-10-06T21:43:03.881Z,88.26
2017-10-06T21:44:03.920Z,88.40
2017-10-06T21:45:56.908Z,88.45
2017-10-06T21:46:56.991Z,88.26
2017-10-06T21:48:49.974Z,88.16
2017-10-06T21:49:50.039Z,88.54
2017-10-06T21:51:43.005Z,88.26
2017-10-06T21:52:43.065Z,88.16
2017-10-06T21:54:36.072Z,88.40
2017-10-06T21:55:36.113Z,88.54
2017-10-06T21:57:29.129Z,88.45
2017-10-06T21:58:29.158Z,88.35
2017-10-06T22:00:22.185Z,88.45
2017-10-06T22:01:22.204Z,88.26
2017-10-06T22:03:15.213Z,87.78
2017-10-06T22:04:15.255Z,88.26
2017-10-06T22:06:08.242Z,87.87
2017-10-06T22:07:08.301Z,88.26
2017-10-06T22:09:01.369Z,88.07
2017-10-06T22:10:01.345Z,88.07
2017-10-06T22:11:54.332Z,88.45
2017-10-06T22:12:54.390Z,88.21
2017-10-06T22:14:47.394Z,88.45
2017-10-06T22:15:47.434Z,88.45
2017-10-06T22:17:40.422Z,88.40
2017-10-06T22:18:40.480Z,88.02
2017-10-06T22:20:33.485Z,88.54
2017-10-06T22:21:33.526Z,88.50
2017-10-06T22:23:26.533Z,88.45
2017-10-06T22:24:26.574Z,88.35
2017-10-06T22:26:19.561Z,88.40
2017-10-06T22:27:19.620Z,88.59
2017-10-06T22:29:12.625Z,88.31
2017-10-06T22:30:12.665Z,88.31
2017-10-06T22:32:05.654Z,88.02
2017-10-06T22:33:05.711Z,88.16
2017-10-06T22:34:58.724Z,88.88
2017-10-06T22:35:58.768Z,88.88
2017-10-06T22:37:51.746Z,88.69
2017-10-06T22:38:51.803Z,88.50
2017-10-06T22:40:44.809Z,88.50
2017-10-06T22:41:44.849Z,88.31
2017-10-06T22:43:37.853Z,88.21
2017-10-06T22:44:37.894Z,88.88
2017-10-06T22:46:30.882Z,88.69
2017-10-06T22:47:30.941Z,89.07
2017-10-06T22:49:23.948Z,89.07
2017-10-06T22:50:23.987Z,89.17
2017-10-06T22:52:16.981Z,88.88
2017-10-06T22:53:17.032Z,89.07
2017-10-06T22:55:10.039Z,89.17
2017-10-06T22:56:10.079Z,89.07
2017-10-06T22:58:03.067Z,89.36
2017-10-06T22:59:03.124Z,88.40
2017-10-06T23:00:56.133Z,88.78
2017-10-06T23:01:56.178Z,88.40
2017-10-06T23:03:49.185Z,89.45
2017-10-06T23:04:49.226Z,89.26
2017-10-06T23:06:42.211Z,89.36
2017-10-06T23:07:42.272Z,89.17
2017-10-06T23:09:35.276Z,89.36
2017-10-06T23:10:35.319Z,88.69
2017-10-06T23:12:28.304Z,88.88
2017-10-06T23:13:28.364Z,88.78
2017-10-06T23:15:21.369Z,88.69
2017-10-06T23:16:21.409Z,89.26
2017-10-06T23:18:14.398Z,89.17
2017-10-06T23:19:14.458Z,89.36
2017-10-06T23:21:07.469Z,89.17
2017-10-06T23:22:07.510Z,89.07
2017-10-06T23:24:00.516Z,89.07
2017-10-06T23:25:00.558Z,89.36
2017-10-06T23:26:53.544Z,89.26
2017-10-06T23:27:53.605Z,89.26
2017-10-06T23:29:46.614Z,89.36
2017-10-06T23:30:46.662Z,89.36
2017-10-06T23:32:39.644Z,89.26
2017-10-06T23:33:39.702Z,89.17
2017-10-06T23:35:32.728Z,89.26
2017-10-06T23:36:32.754Z,89.45
2017-10-06T23:38:25.741Z,89.26
2017-10-06T23:39:25.800Z,89.26
2017-10-06T23:41:18.816Z,89.26
2017-10-06T23:42:18.849Z,89.17
2017-10-06T23:44:11.853Z,89.45
2017-10-06T23:45:11.895Z,89.07
2017-10-06T23:47:04.884Z,89.54
2017-10-06T23:48:04.940Z,89.83
2017-10-06T23:49:57.947Z,89.74
2017-10-06T23:50:57.987Z,89.17
2017-10-06T23:52:50.978Z,89.36
2017-10-06T23:53:51.038Z,89.26
2017-10-06T23:55:44.047Z,89.36
2017-10-06T23:56:44.087Z,89.17
2017-10-06T23:58:37.588Z,89.07
2017-10-06T23:59:37.645Z,89.26
